Brier, Washington
Current Conditions -  °F | °C
As of 9:53 AM on Thursday 23 Oct 2014 (Local Time) from KPAE Reporting Station
Light Rain Light Rain  
Wind Chill: 50°   Ceiling: 6000
Heat Index: 50°   Visibility: 10mi
Dew Point: 47°   Wind: 15mph
Humidity: 89%   Direction: 170°S
Pressure: 29.76"   Gusts: NA
Location:  47.8111°N, 122.283°W
Report Text: KPAE 231653Z 17013KT 10SM -RA SCT044 OVC060 10/08 A2976 RMK AO2 SLP077 P0005 T01000083
Loading
Personal Weather Stations






























Interactive Weather Map
Tropical Storm Tracking
New forecast layout! Learn more

10-Day Weather Forecast

Advertisements
Track Severe Weather on mobile